Costa Neoriviera — IBDU — position and weather

sailwx.info

Track history (hours):
 
Tides and Currents Weather Stations Pressure Air Temp Water Temp Dewpoint Dewpoint Depression Visibility Wind Speed Wind Dir Waves Ship Positions

Costa Neoriviera

Last reported at 2017-Oct-05 01:29 UTC. Time now 2017-Nov-18 19:52 UTC.
Position N 35°34' E 024°34'.
Warning: this ship's position is 44 days out of date.

Length 216 m; draft 7 m.

Type: Passenger vessel. MMSI: 247325300.

Date/timePositionNaut miles runAvg speedWind from/ knotsBaromVisibWave heightAir tempDewpointWater temp
2017-Oct-05 01:29N 35°34' E 024°34'714.2
2017-Oct-05 01:00N 35°36' E 024°26'41914.6
2017-Oct-03 20:20N 37°45' E 016°09'515.4
2017-Oct-03 20:00N 37°47' E 016°03'815.3
2017-Oct-03 19:30N 37°50' E 015°53'815.5
2017-Oct-03 19:00N 37°52' E 015°44'815.2
2017-Oct-03 18:30N 37°56' E 015°36'714.9
2017-Oct-03 18:00N 38°04' E 015°35'510.5
2017-Oct-03 17:30N 38°08' E 015°38'1 2.2
2017-Oct-03 16:59N 38°08' E 015°39'0 0.0
2017-Oct-03 16:29N 38°08' E 015°39'0 0.0
2017-Oct-03 15:56N 38°08' E 015°39'0 0.0
2017-Oct-03 15:26N 38°08' E 015°39'0 0.0
2017-Oct-03 14:59N 38°08' E 015°39'0 0.0
2017-Oct-03 13:59N 38°08' E 015°39'0 0.0
2017-Oct-03 13:29N 38°08' E 015°39'0 0.0
2017-Oct-03 12:56N 38°08' E 015°39'0 0.0
2017-Oct-03 12:29N 38°08' E 015°39'0 0.0
2017-Oct-03 11:59N 38°08' E 015°39'0 0.0
2017-Oct-03 11:29N 38°08' E 015°39'0 0.0
2017-Oct-03 11:00N 38°08' E 015°39'1 1.2
2017-Oct-03 10:30N 38°08' E 015°39'4 8.1
2017-Oct-03 10:00N 38°12' E 015°37'611.1
2017-Oct-03 09:31N 38°16' E 015°41'713.4
2017-Oct-03 09:01N 38°22' E 015°36'816.2
2017-Oct-03 08:31N 38°28' E 015°29'816.0
2017-Oct-03 08:00N 38°34' E 015°23'815.8
2017-Oct-03 07:30N 38°40' E 015°16'815.8
2017-Oct-03 07:01N 38°45' E 015°08'815.9
2017-Oct-03 06:30N 38°51' E 015°01'915.9
2017-Oct-03 05:56N 38°57' E 014°53'286 9.8
2017-Oct-02 00:38N 42°13' E 010°18'5916.1
2017-Oct-01 20:56N 43°03' E 009°35'818.4
2017-Oct-01 20:30N 43°11' E 009°31'918.3
2017-Oct-01 20:00N 43°19' E 009°27'918.0
2017-Oct-01 19:30N 43°27' E 009°22'918.2
2017-Oct-01 19:00N 43°36' E 009°19'918.3
2017-Oct-01 18:30N 43°45' E 009°15'918.3
2017-Oct-01 18:00N 43°53' E 009°11'918.1
2017-Oct-01 17:30N 44°02' E 009°06'918.3
2017-Oct-01 17:00N 44°11' E 009°02'917.6
2017-Oct-01 16:30N 44°19' E 008°58'5 9.6
2017-Oct-01 16:00N 44°24' E 008°56'1 2.4
2017-Oct-01 15:26N 44°25' E 008°55'0 0.0
2017-Oct-01 14:56N 44°25' E 008°55'0 0.0
2017-Oct-01 14:26N 44°25' E 008°55'0 0.0
2017-Oct-01 14:00N 44°25' E 008°55'0 0.0
2017-Oct-01 13:30N 44°25' E 008°55'0 0.0
2017-Oct-01 13:00N 44°25' E 008°55'0 0.0
2017-Oct-01 12:30N 44°25' E 008°55'0 0.0
2017-Oct-01 12:00N 44°25' E 008°55'0 0.0
2017-Oct-01 11:28N 44°25' E 008°55'0 0.0
2017-Oct-01 10:56N 44°25' E 008°55'0 0.0
2017-Oct-01 10:26N 44°25' E 008°55'0 0.0
2017-Oct-01 09:56N 44°25' E 008°55'0 0.0
2017-Oct-01 09:26N 44°25' E 008°55'0 0.0
2017-Oct-01 08:57N 44°25' E 008°55'0 0.0
2017-Oct-01 08:27N 44°25' E 008°55'0 0.0
2017-Oct-01 07:57N 44°25' E 008°55'0 0.0
2017-Oct-01 07:27N 44°25' E 008°55'0 0.0
2017-Oct-01 06:54N 44°25' E 008°55'0 0.0
2017-Oct-01 06:27N 44°25' E 008°55'0 0.9
2017-Oct-01 06:00N 44°24' E 008°55'2 4.8
2017-Oct-01 05:30N 44°23' E 008°57'4 8.4
2017-Oct-01 05:00N 44°18' E 008°58'713.8
2017-Oct-01 04:31N 44°14' E 008°51'714.6
2017-Oct-01 04:01N 44°10' E 008°43'714.5
2017-Oct-01 03:30N 44°06' E 008°34'714.4
2017-Oct-01 03:01N 44°01' E 008°27'34413.8
2017-Sep-30 02:00N 41°07' E 001°44'714.2
2017-Sep-30 01:30N 41°06' E 001°35'104 3.6
2017-Sep-28 20:42N 39°29' E 002°22'212.8
2017-Sep-28 20:30N 39°27' E 002°24'611.8
2017-Sep-28 20:00N 39°26' E 002°32'612.2
2017-Sep-28 19:30N 39°30' E 002°38'3 5.5
2017-Sep-28 18:59N 39°33' E 002°38'0 0.0
2017-Sep-28 18:29N 39°33' E 002°38'0 0.0
2017-Sep-28 17:59N 39°33' E 002°38'0 0.0
2017-Sep-28 17:29N 39°33' E 002°38'0 0.0
2017-Sep-28 16:59N 39°33' E 002°38'0 0.0
2017-Sep-28 16:28N 39°33' E 002°38'0 0.0
2017-Sep-28 15:58N 39°33' E 002°38'0 0.0
2017-Sep-28 15:30N 39°33' E 002°38'0 0.0
2017-Sep-28 15:00N 39°33' E 002°38'0 0.0
2017-Sep-28 14:30N 39°33' E 002°38'0 0.0
2017-Sep-28 13:58N 39°33' E 002°38'0 0.0
2017-Sep-28 13:29N 39°33' E 002°38'0 0.0
2017-Sep-28 13:00N 39°33' E 002°38'0 0.0
2017-Sep-28 12:30N 39°33' E 002°38'0 0.0
2017-Sep-28 12:00N 39°33' E 002°38'0 0.0
2017-Sep-28 11:30N 39°33' E 002°38'0 0.0
2017-Sep-28 11:00N 39°33' E 002°38'0 0.0
2017-Sep-28 10:30N 39°33' E 002°38'0 0.0
2017-Sep-28 10:00N 39°33' E 002°38'0 0.0
2017-Sep-28 09:30N 39°33' E 002°38'0 0.0
2017-Sep-28 09:00N 39°33' E 002°38'0 0.0
2017-Sep-28 08:30N 39°33' E 002°38'0 0.0
2017-Sep-28 08:00N 39°33' E 002°38'0 0.0
2017-Sep-28 07:28N 39°33' E 002°38'0 0.5
2017-Sep-28 07:00N 39°33' E 002°38'3 5.8
2017-Sep-28 06:30N 39°30' E 002°38'714.8
2017-Sep-28 06:00N 39°25' E 002°31'815.1
2017-Sep-28 05:30N 39°21' E 002°22'815.3
2017-Sep-28 05:00N 39°17' E 002°14'815.1
2017-Sep-28 04:30N 39°13' E 002°05'715.1
2017-Sep-28 04:00N 39°08' E 001°58'815.1
2017-Sep-28 03:30N 39°04' E 001°50'814.9
2017-Sep-28 03:00N 38°60' E 001°42'714.7
2017-Sep-28 02:30N 38°56' E 001°34'612.0
2017-Sep-28 02:00N 38°54' E 001°27'1 0.9
2017-Sep-28 01:25N 38°54' E 001°27'0 0.0
2017-Sep-28 00:58N 38°54' E 001°27'0 0.0
2017-Sep-28 00:28N 38°54' E 001°27'0 0.0
2017-Sep-27 23:59N 38°54' E 001°27'0 0.0
2017-Sep-27 23:25N 38°54' E 001°27'0 0.0
2017-Sep-27 22:59N 38°54' E 001°27'0 0.0
2017-Sep-27 22:29N 38°54' E 001°27'0 0.0
2017-Sep-27 21:59N 38°54' E 001°27'0 0.0
2017-Sep-27 21:29N 38°54' E 001°27'0 0.0
2017-Sep-27 21:00N 38°54' E 001°27'0 0.0
2017-Sep-27 20:30N 38°54' E 001°27'0 0.0
2017-Sep-27 19:59N 38°54' E 001°27'0 0.0
2017-Sep-27 19:26N 38°54' E 001°27'0 0.0
2017-Sep-27 19:00N 38°54' E 001°27'0 0.0
2017-Sep-27 18:28N 38°54' E 001°27'0 0.0
2017-Sep-27 17:58N 38°54' E 001°27'0 0.0
2017-Sep-27 17:28N 38°54' E 001°27'0 0.0
2017-Sep-27 16:58N 38°54' E 001°27'0 0.0
2017-Sep-27 16:28N 38°54' E 001°27'0 0.0
2017-Sep-27 15:58N 38°54' E 001°27'0 0.0
2017-Sep-27 15:25N 38°54' E 001°27'0 0.0
2017-Sep-27 14:58N 38°54' E 001°27'0 0.0
2017-Sep-27 14:25N 38°54' E 001°27'0 0.0
2017-Sep-27 13:58N 38°54' E 001°27'0 0.0
2017-Sep-27 13:25N 38°54' E 001°27'0 0.0
2017-Sep-27 12:58N 38°54' E 001°27'0 0.0
2017-Sep-27 12:28N 38°54' E 001°27'0 0.0
2017-Sep-27 11:58N 38°54' E 001°27'0 0.0
2017-Sep-27 11:25N 38°54' E 001°27'0 0.0
2017-Sep-27 10:58N 38°54' E 001°27'0 0.0
2017-Sep-27 10:28N 38°54' E 001°27'0 0.0
2017-Sep-27 09:58N 38°54' E 001°27'0 0.0
2017-Sep-27 09:28N 38°54' E 001°27'0 0.0
2017-Sep-27 08:58N 38°54' E 001°27'0 0.0
2017-Sep-27 08:25N 38°54' E 001°27'0 0.0
2017-Sep-27 07:58N 38°54' E 001°27'0 0.0
2017-Sep-27 07:28N 38°54' E 001°27'0 0.0
2017-Sep-27 06:58N 38°54' E 001°27'0 0.0
2017-Sep-27 06:28N 38°54' E 001°27'1 1.2
2017-Sep-27 06:00N 38°54' E 001°27'510.4
2017-Sep-27 05:30N 38°54' E 001°34'511.0
2017-Sep-27 05:00N 38°55' E 001°41'611.1
2017-Sep-27 04:30N 38°56' E 001°48'611.4
2017-Sep-27 04:00N 38°57' E 001°55'511.1
2017-Sep-27 03:30N 38°59' E 002°02'510.8
2017-Sep-27 03:00N 39°00' E 002°08'510.7
2017-Sep-27 02:30N 38°59' E 002°15'611.5
2017-Sep-27 02:00N 38°58' E 002°22'611.8
2017-Sep-27 01:30N 38°57' E 002°30'611.8
2017-Sep-27 01:00N 39°01' E 002°35'612.3
2017-Sep-27 00:30N 39°03' E 002°43'611.8
2017-Sep-27 00:00N 39°04' E 002°51'611.8
2017-Sep-26 23:30N 39°05' E 002°58'611.9
2017-Sep-26 23:00N 39°08' E 003°05'612.0
2017-Sep-26 22:30N 39°11' E 003°11'611.9
2017-Sep-26 22:00N 39°14' E 003°18'612.1
2017-Sep-26 21:30N 39°18' E 003°24'612.3
2017-Sep-26 21:00N 39°21' E 003°31'612.1
2017-Sep-26 20:30N 39°24' E 003°37'611.8
2017-Sep-26 20:00N 39°27' E 003°44'612.0
2017-Sep-26 19:28N 39°31' E 003°51'712.1
2017-Sep-26 18:54N 39°35' E 003°58'512.2
2017-Sep-26 18:30N 39°37' E 004°03'225 5.8
2017-Sep-25 04:01N 41°20' E 008°26'115.0
2017-Sep-25 03:58N 41°21' E 008°26'  
Track history (hours):
 
Tides and Currents Weather Stations Pressure Air Temp Water Temp Dewpoint Dewpoint Depression Visibility Wind Speed Wind Dir Waves Ship Positions

Costa Neoriviera

Last reported at 2017-Oct-05 01:29 UTC. Time now 2017-Nov-18 19:52 UTC.
Position N 35°34' E 024°34'.
Warning: this ship's position is 44 days out of date.

Length 216 m; draft 7 m.

Type: Passenger vessel. MMSI: 247325300.

Date/timePositionNaut miles runAvg speedWind from/ knotsBaromVisibWave heightAir tempDewpointWater temp
2017-Oct-05 01:29N 35°34' E 024°34'714.2
2017-Oct-05 01:00N 35°36' E 024°26'41914.6
2017-Oct-03 20:20N 37°45' E 016°09'515.4
2017-Oct-03 20:00N 37°47' E 016°03'815.3
2017-Oct-03 19:30N 37°50' E 015°53'815.5
2017-Oct-03 19:00N 37°52' E 015°44'815.2
2017-Oct-03 18:30N 37°56' E 015°36'714.9
2017-Oct-03 18:00N 38°04' E 015°35'510.5
2017-Oct-03 17:30N 38°08' E 015°38'1 2.2
2017-Oct-03 16:59N 38°08' E 015°39'0 0.0
2017-Oct-03 16:29N 38°08' E 015°39'0 0.0
2017-Oct-03 15:56N 38°08' E 015°39'0 0.0
2017-Oct-03 15:26N 38°08' E 015°39'0 0.0
2017-Oct-03 14:59N 38°08' E 015°39'0 0.0
2017-Oct-03 13:59N 38°08' E 015°39'0 0.0
2017-Oct-03 13:29N 38°08' E 015°39'0 0.0
2017-Oct-03 12:56N 38°08' E 015°39'0 0.0
2017-Oct-03 12:29N 38°08' E 015°39'0 0.0
2017-Oct-03 11:59N 38°08' E 015°39'0 0.0
2017-Oct-03 11:29N 38°08' E 015°39'0 0.0
2017-Oct-03 11:00N 38°08' E 015°39'1 1.2
2017-Oct-03 10:30N 38°08' E 015°39'4 8.1
2017-Oct-03 10:00N 38°12' E 015°37'611.1
2017-Oct-03 09:31N 38°16' E 015°41'713.4
2017-Oct-03 09:01N 38°22' E 015°36'816.2
2017-Oct-03 08:31N 38°28' E 015°29'816.0
2017-Oct-03 08:00N 38°34' E 015°23'815.8
2017-Oct-03 07:30N 38°40' E 015°16'815.8
2017-Oct-03 07:01N 38°45' E 015°08'815.9
2017-Oct-03 06:30N 38°51' E 015°01'915.9
2017-Oct-03 05:56N 38°57' E 014°53'286 9.8
2017-Oct-02 00:38N 42°13' E 010°18'5916.1
2017-Oct-01 20:56N 43°03' E 009°35'818.4
2017-Oct-01 20:30N 43°11' E 009°31'918.3
2017-Oct-01 20:00N 43°19' E 009°27'918.0
2017-Oct-01 19:30N 43°27' E 009°22'918.2
2017-Oct-01 19:00N 43°36' E 009°19'918.3
2017-Oct-01 18:30N 43°45' E 009°15'918.3
2017-Oct-01 18:00N 43°53' E 009°11'918.1
2017-Oct-01 17:30N 44°02' E 009°06'918.3
2017-Oct-01 17:00N 44°11' E 009°02'917.6
2017-Oct-01 16:30N 44°19' E 008°58'5 9.6
2017-Oct-01 16:00N 44°24' E 008°56'1 2.4
2017-Oct-01 15:26N 44°25' E 008°55'0 0.0
2017-Oct-01 14:56N 44°25' E 008°55'0 0.0
2017-Oct-01 14:26N 44°25' E 008°55'0 0.0
2017-Oct-01 14:00N 44°25' E 008°55'0 0.0
2017-Oct-01 13:30N 44°25' E 008°55'0 0.0
2017-Oct-01 13:00N 44°25' E 008°55'0 0.0
2017-Oct-01 12:30N 44°25' E 008°55'0 0.0
2017-Oct-01 12:00N 44°25' E 008°55'0 0.0
2017-Oct-01 11:28N 44°25' E 008°55'0 0.0
2017-Oct-01 10:56N 44°25' E 008°55'0 0.0
2017-Oct-01 10:26N 44°25' E 008°55'0 0.0
2017-Oct-01 09:56N 44°25' E 008°55'0 0.0
2017-Oct-01 09:26N 44°25' E 008°55'0 0.0
2017-Oct-01 08:57N 44°25' E 008°55'0 0.0
2017-Oct-01 08:27N 44°25' E 008°55'0 0.0
2017-Oct-01 07:57N 44°25' E 008°55'0 0.0
2017-Oct-01 07:27N 44°25' E 008°55'0 0.0
2017-Oct-01 06:54N 44°25' E 008°55'0 0.0
2017-Oct-01 06:27N 44°25' E 008°55'0 0.9
2017-Oct-01 06:00N 44°24' E 008°55'2 4.8
2017-Oct-01 05:30N 44°23' E 008°57'4 8.4
2017-Oct-01 05:00N 44°18' E 008°58'713.8
2017-Oct-01 04:31N 44°14' E 008°51'714.6
2017-Oct-01 04:01N 44°10' E 008°43'714.5
2017-Oct-01 03:30N 44°06' E 008°34'714.4
2017-Oct-01 03:01N 44°01' E 008°27'34413.8
2017-Sep-30 02:00N 41°07' E 001°44'714.2
2017-Sep-30 01:30N 41°06' E 001°35'104 3.6
2017-Sep-28 20:42N 39°29' E 002°22'212.8
2017-Sep-28 20:30N 39°27' E 002°24'611.8
2017-Sep-28 20:00N 39°26' E 002°32'612.2
2017-Sep-28 19:30N 39°30' E 002°38'3 5.5
2017-Sep-28 18:59N 39°33' E 002°38'0 0.0
2017-Sep-28 18:29N 39°33' E 002°38'0 0.0
2017-Sep-28 17:59N 39°33' E 002°38'0 0.0
2017-Sep-28 17:29N 39°33' E 002°38'0 0.0
2017-Sep-28 16:59N 39°33' E 002°38'0 0.0
2017-Sep-28 16:28N 39°33' E 002°38'0 0.0
2017-Sep-28 15:58N 39°33' E 002°38'0 0.0
2017-Sep-28 15:30N 39°33' E 002°38'0 0.0
2017-Sep-28 15:00N 39°33' E 002°38'0 0.0
2017-Sep-28 14:30N 39°33' E 002°38'0 0.0
2017-Sep-28 13:58N 39°33' E 002°38'0 0.0
2017-Sep-28 13:29N 39°33' E 002°38'0 0.0
2017-Sep-28 13:00N 39°33' E 002°38'0 0.0
2017-Sep-28 12:30N 39°33' E 002°38'0 0.0
2017-Sep-28 12:00N 39°33' E 002°38'0 0.0
2017-Sep-28 11:30N 39°33' E 002°38'0 0.0
2017-Sep-28 11:00N 39°33' E 002°38'0 0.0
2017-Sep-28 10:30N 39°33' E 002°38'0 0.0
2017-Sep-28 10:00N 39°33' E 002°38'0 0.0
2017-Sep-28 09:30N 39°33' E 002°38'0 0.0
2017-Sep-28 09:00N 39°33' E 002°38'0 0.0
2017-Sep-28 08:30N 39°33' E 002°38'0 0.0
2017-Sep-28 08:00N 39°33' E 002°38'0 0.0
2017-Sep-28 07:28N 39°33' E 002°38'0 0.5
2017-Sep-28 07:00N 39°33' E 002°38'3 5.8
2017-Sep-28 06:30N 39°30' E 002°38'714.8
2017-Sep-28 06:00N 39°25' E 002°31'815.1
2017-Sep-28 05:30N 39°21' E 002°22'815.3
2017-Sep-28 05:00N 39°17' E 002°14'815.1
2017-Sep-28 04:30N 39°13' E 002°05'715.1
2017-Sep-28 04:00N 39°08' E 001°58'815.1
2017-Sep-28 03:30N 39°04' E 001°50'814.9
2017-Sep-28 03:00N 38°60' E 001°42'714.7
2017-Sep-28 02:30N 38°56' E 001°34'612.0
2017-Sep-28 02:00N 38°54' E 001°27'1 0.9
2017-Sep-28 01:25N 38°54' E 001°27'0 0.0
2017-Sep-28 00:58N 38°54' E 001°27'0 0.0
2017-Sep-28 00:28N 38°54' E 001°27'0 0.0
2017-Sep-27 23:59N 38°54' E 001°27'0 0.0
2017-Sep-27 23:25N 38°54' E 001°27'0 0.0
2017-Sep-27 22:59N 38°54' E 001°27'0 0.0
2017-Sep-27 22:29N 38°54' E 001°27'0 0.0
2017-Sep-27 21:59N 38°54' E 001°27'0 0.0
2017-Sep-27 21:29N 38°54' E 001°27'0 0.0
2017-Sep-27 21:00N 38°54' E 001°27'0 0.0
2017-Sep-27 20:30N 38°54' E 001°27'0 0.0
2017-Sep-27 19:59N 38°54' E 001°27'0 0.0
2017-Sep-27 19:26N 38°54' E 001°27'0 0.0
2017-Sep-27 19:00N 38°54' E 001°27'0 0.0
2017-Sep-27 18:28N 38°54' E 001°27'0 0.0
2017-Sep-27 17:58N 38°54' E 001°27'0 0.0
2017-Sep-27 17:28N 38°54' E 001°27'0 0.0
2017-Sep-27 16:58N 38°54' E 001°27'0 0.0
2017-Sep-27 16:28N 38°54' E 001°27'0 0.0
2017-Sep-27 15:58N 38°54' E 001°27'0 0.0
2017-Sep-27 15:25N 38°54' E 001°27'0 0.0
2017-Sep-27 14:58N 38°54' E 001°27'0 0.0
2017-Sep-27 14:25N 38°54' E 001°27'0 0.0
2017-Sep-27 13:58N 38°54' E 001°27'0 0.0
2017-Sep-27 13:25N 38°54' E 001°27'0 0.0
2017-Sep-27 12:58N 38°54' E 001°27'0 0.0
2017-Sep-27 12:28N 38°54' E 001°27'0 0.0
2017-Sep-27 11:58N 38°54' E 001°27'0 0.0
2017-Sep-27 11:25N 38°54' E 001°27'0 0.0
2017-Sep-27 10:58N 38°54' E 001°27'0 0.0
2017-Sep-27 10:28N 38°54' E 001°27'0 0.0
2017-Sep-27 09:58N 38°54' E 001°27'0 0.0
2017-Sep-27 09:28N 38°54' E 001°27'0 0.0
2017-Sep-27 08:58N 38°54' E 001°27'0 0.0
2017-Sep-27 08:25N 38°54' E 001°27'0 0.0
2017-Sep-27 07:58N 38°54' E 001°27'0 0.0
2017-Sep-27 07:28N 38°54' E 001°27'0 0.0
2017-Sep-27 06:58N 38°54' E 001°27'0 0.0
2017-Sep-27 06:28N 38°54' E 001°27'1 1.2
2017-Sep-27 06:00N 38°54' E 001°27'510.4
2017-Sep-27 05:30N 38°54' E 001°34'511.0
2017-Sep-27 05:00N 38°55' E 001°41'611.1
2017-Sep-27 04:30N 38°56' E 001°48'611.4
2017-Sep-27 04:00N 38°57' E 001°55'511.1
2017-Sep-27 03:30N 38°59' E 002°02'510.8
2017-Sep-27 03:00N 39°00' E 002°08'510.7
2017-Sep-27 02:30N 38°59' E 002°15'611.5
2017-Sep-27 02:00N 38°58' E 002°22'611.8
2017-Sep-27 01:30N 38°57' E 002°30'611.8
2017-Sep-27 01:00N 39°01' E 002°35'612.3
2017-Sep-27 00:30N 39°03' E 002°43'611.8
2017-Sep-27 00:00N 39°04' E 002°51'611.8
2017-Sep-26 23:30N 39°05' E 002°58'611.9
2017-Sep-26 23:00N 39°08' E 003°05'612.0
2017-Sep-26 22:30N 39°11' E 003°11'611.9
2017-Sep-26 22:00N 39°14' E 003°18'612.1
2017-Sep-26 21:30N 39°18' E 003°24'612.3
2017-Sep-26 21:00N 39°21' E 003°31'612.1
2017-Sep-26 20:30N 39°24' E 003°37'611.8
2017-Sep-26 20:00N 39°27' E 003°44'612.0
2017-Sep-26 19:28N 39°31' E 003°51'712.1
2017-Sep-26 18:54N 39°35' E 003°58'512.2
2017-Sep-26 18:30N 39°37' E 004°03'225 5.8
2017-Sep-25 04:01N 41°20' E 008°26'115.0
2017-Sep-25 03:58N 41°21' E 008°26'  

Dump ship's entire track history